Rodney E. Settoon — WDH5388 — position and weather

sailwx.info

Track history (hours):
 
Tides and Currents Weather Stations Pressure Air Temp Water Temp Dewpoint Dewpoint Depression Visibility Wind Speed Wind Dir Waves Ship Positions

Rodney E. Settoon

Owner: Settoon Towing, L.L.C., Houma, LA. More information available from US FCC via Universal Licensing System and Coast Guard Vessel Documentation Center.

Last reported at 2018-Feb-20 22:46 UTC. Time now 2018-Feb-21 09:33 UTC.
Position N 29°24' W 090°44'.

Type: Towing. MMSI: 367627470.

Date/timePositionNaut miles runAvg speedWind from/ knotsBaromVisibWave heightAir tempDewpointWater temp
2018-Feb-20 22:46N 29°24' W 090°44'1 5.7
2018-Feb-20 22:30N 29°26' W 090°43'3 5.7
2018-Feb-20 22:00N 29°29' W 090°43'3 5.6
2018-Feb-20 21:30N 29°31' W 090°42'3 5.3
2018-Feb-20 21:00N 29°34' W 090°43'2 4.3
2018-Feb-20 20:30N 29°33' W 090°45'2 4.7
2018-Feb-20 20:01N 29°32' W 090°48'3 5.6
2018-Feb-20 19:31N 29°32' W 090°51'7 0.2
2018-Feb-19 13:41N 29°36' W 090°58'2 5.6
2018-Feb-19 13:20N 29°34' W 090°57'2 5.9
2018-Feb-19 13:01N 29°33' W 090°55'3 5.9
2018-Feb-19 12:29N 29°32' W 090°51'3 5.9
2018-Feb-19 12:00N 29°32' W 090°48'3 5.1
2018-Feb-19 11:31N 29°33' W 090°45'3 5.1
2018-Feb-19 11:00N 29°34' W 090°43'2 4.9
2018-Feb-19 10:30N 29°37' W 090°42'1 2.2
2018-Feb-19 10:00N 29°36' W 090°41'3 5.3
2018-Feb-19 09:30N 29°35' W 090°38'2 4.9
2018-Feb-19 09:01N 29°35' W 090°36'7 0.2
2018-Feb-17 16:31N 29°33' W 090°28'0 6.4
2018-Feb-17 16:30N 29°33' W 090°28'3 6.4
2018-Feb-17 16:01N 29°34' W 090°31'3 6.2
2018-Feb-17 15:31N 29°34' W 090°35'3 6.0
2018-Feb-17 15:00N 29°35' W 090°38'3 6.2
2018-Feb-17 14:30N 29°37' W 090°41'2 4.4
2018-Feb-17 14:00N 29°35' W 090°43'3 5.4
2018-Feb-17 13:31N 29°33' W 090°45'3 5.9
2018-Feb-17 13:01N 29°32' W 090°49'9 0.7
2018-Feb-17 00:36N 29°36' W 090°58'2 6.7
2018-Feb-17 00:20N 29°34' W 090°57'2 7.0
2018-Feb-17 00:00N 29°33' W 090°54'3 6.7
2018-Feb-16 23:30N 29°32' W 090°51'3 6.7
2018-Feb-16 23:00N 29°32' W 090°47'3 5.8
2018-Feb-16 22:30N 29°34' W 090°44'3 5.6
2018-Feb-16 22:01N 29°36' W 090°43'1 1.8
2018-Feb-16 21:30N 29°37' W 090°42'3 6.0
2018-Feb-16 21:01N 29°35' W 090°39'3 6.2
2018-Feb-16 20:31N 29°35' W 090°35'8 0.6
2018-Feb-16 07:58N 29°33' W 090°26'3 6.6
2018-Feb-16 07:31N 29°34' W 090°30'3 6.6
2018-Feb-16 07:01N 29°34' W 090°34'3 6.4
2018-Feb-16 06:30N 29°35' W 090°37'4 7.3
2018-Feb-16 06:01N 29°36' W 090°41'2 3.0
2018-Feb-16 05:30N 29°36' W 090°43'3 6.3
2018-Feb-16 05:00N 29°34' W 090°45'3 6.2
2018-Feb-16 04:30N 29°32' W 090°48'  
2018-Feb-13 14:46N 29°36' W 090°58'3 6.5
2018-Feb-13 14:23N 29°34' W 090°56'3 6.9
2018-Feb-13 13:56N 29°32' W 090°53'3 6.6
2018-Feb-13 13:30N 29°32' W 090°50'3 6.6
2018-Feb-13 13:00N 29°32' W 090°46'3 6.0
2018-Feb-13 12:31N 29°34' W 090°43'2 4.3
2018-Feb-13 12:00N 29°32' W 090°42'3 6.5
2018-Feb-13 11:30N 29°29' W 090°43'17 0.3
2018-Feb-11 11:28N 29°33' W 090°24'4 4.5
2018-Feb-11 10:41N 29°34' W 090°28'1 5.9
2018-Feb-11 10:31N 29°34' W 090°29'3 5.6
2018-Feb-11 10:00N 29°34' W 090°33'1 1.1
2018-Feb-11 09:30N 29°34' W 090°32'0 0.0
2018-Feb-11 09:00N 29°34' W 090°32'0 0.0
2018-Feb-11 08:31N 29°34' W 090°32'0 0.0
2018-Feb-11 08:00N 29°34' W 090°32'0 0.0
2018-Feb-11 07:30N 29°34' W 090°32'0 0.0
2018-Feb-11 07:00N 29°34' W 090°32'0 0.0
2018-Feb-11 06:30N 29°34' W 090°32'0 0.0
2018-Feb-11 06:00N 29°34' W 090°32'0 0.0
2018-Feb-11 05:30N 29°34' W 090°32'0 0.0
2018-Feb-11 05:00N 29°34' W 090°32'0 0.0
2018-Feb-11 04:31N 29°34' W 090°32'0 0.0
2018-Feb-11 04:00N 29°34' W 090°32'0 0.0
2018-Feb-11 03:30N 29°34' W 090°32'0 0.0
2018-Feb-11 03:00N 29°34' W 090°32'0 0.2
2018-Feb-11 02:31N 29°34' W 090°32'3 6.2
2018-Feb-11 02:00N 29°35' W 090°36'2 4.6
2018-Feb-11 01:30N 29°35' W 090°38'3 5.5
2018-Feb-11 01:01N 29°36' W 090°41'2 3.1
2018-Feb-11 00:31N 29°36' W 090°43'2 3.0
2018-Feb-11 00:01N 29°34' W 090°43'2 4.5
2018-Feb-10 23:31N 29°33' W 090°45'3 5.8
2018-Feb-10 23:00N 29°32' W 090°48'  
Track history (hours):
 
Tides and Currents Weather Stations Pressure Air Temp Water Temp Dewpoint Dewpoint Depression Visibility Wind Speed Wind Dir Waves Ship Positions

Rodney E. Settoon

Owner: Settoon Towing, L.L.C., Houma, LA. More information available from US FCC via Universal Licensing System and Coast Guard Vessel Documentation Center.

Last reported at 2018-Feb-20 22:46 UTC. Time now 2018-Feb-21 09:33 UTC.
Position N 29°24' W 090°44'.

Type: Towing. MMSI: 367627470.

Date/timePositionNaut miles runAvg speedWind from/ knotsBaromVisibWave heightAir tempDewpointWater temp
2018-Feb-20 22:46N 29°24' W 090°44'1 5.7
2018-Feb-20 22:30N 29°26' W 090°43'3 5.7
2018-Feb-20 22:00N 29°29' W 090°43'3 5.6
2018-Feb-20 21:30N 29°31' W 090°42'3 5.3
2018-Feb-20 21:00N 29°34' W 090°43'2 4.3
2018-Feb-20 20:30N 29°33' W 090°45'2 4.7
2018-Feb-20 20:01N 29°32' W 090°48'3 5.6
2018-Feb-20 19:31N 29°32' W 090°51'7 0.2
2018-Feb-19 13:41N 29°36' W 090°58'2 5.6
2018-Feb-19 13:20N 29°34' W 090°57'2 5.9
2018-Feb-19 13:01N 29°33' W 090°55'3 5.9
2018-Feb-19 12:29N 29°32' W 090°51'3 5.9
2018-Feb-19 12:00N 29°32' W 090°48'3 5.1
2018-Feb-19 11:31N 29°33' W 090°45'3 5.1
2018-Feb-19 11:00N 29°34' W 090°43'2 4.9
2018-Feb-19 10:30N 29°37' W 090°42'1 2.2
2018-Feb-19 10:00N 29°36' W 090°41'3 5.3
2018-Feb-19 09:30N 29°35' W 090°38'2 4.9
2018-Feb-19 09:01N 29°35' W 090°36'7 0.2
2018-Feb-17 16:31N 29°33' W 090°28'0 6.4
2018-Feb-17 16:30N 29°33' W 090°28'3 6.4
2018-Feb-17 16:01N 29°34' W 090°31'3 6.2
2018-Feb-17 15:31N 29°34' W 090°35'3 6.0
2018-Feb-17 15:00N 29°35' W 090°38'3 6.2
2018-Feb-17 14:30N 29°37' W 090°41'2 4.4
2018-Feb-17 14:00N 29°35' W 090°43'3 5.4
2018-Feb-17 13:31N 29°33' W 090°45'3 5.9
2018-Feb-17 13:01N 29°32' W 090°49'9 0.7
2018-Feb-17 00:36N 29°36' W 090°58'2 6.7
2018-Feb-17 00:20N 29°34' W 090°57'2 7.0
2018-Feb-17 00:00N 29°33' W 090°54'3 6.7
2018-Feb-16 23:30N 29°32' W 090°51'3 6.7
2018-Feb-16 23:00N 29°32' W 090°47'3 5.8
2018-Feb-16 22:30N 29°34' W 090°44'3 5.6
2018-Feb-16 22:01N 29°36' W 090°43'1 1.8
2018-Feb-16 21:30N 29°37' W 090°42'3 6.0
2018-Feb-16 21:01N 29°35' W 090°39'3 6.2
2018-Feb-16 20:31N 29°35' W 090°35'8 0.6
2018-Feb-16 07:58N 29°33' W 090°26'3 6.6
2018-Feb-16 07:31N 29°34' W 090°30'3 6.6
2018-Feb-16 07:01N 29°34' W 090°34'3 6.4
2018-Feb-16 06:30N 29°35' W 090°37'4 7.3
2018-Feb-16 06:01N 29°36' W 090°41'2 3.0
2018-Feb-16 05:30N 29°36' W 090°43'3 6.3
2018-Feb-16 05:00N 29°34' W 090°45'3 6.2
2018-Feb-16 04:30N 29°32' W 090°48'  
2018-Feb-13 14:46N 29°36' W 090°58'3 6.5
2018-Feb-13 14:23N 29°34' W 090°56'3 6.9
2018-Feb-13 13:56N 29°32' W 090°53'3 6.6
2018-Feb-13 13:30N 29°32' W 090°50'3 6.6
2018-Feb-13 13:00N 29°32' W 090°46'3 6.0
2018-Feb-13 12:31N 29°34' W 090°43'2 4.3
2018-Feb-13 12:00N 29°32' W 090°42'3 6.5
2018-Feb-13 11:30N 29°29' W 090°43'17 0.3
2018-Feb-11 11:28N 29°33' W 090°24'4 4.5
2018-Feb-11 10:41N 29°34' W 090°28'1 5.9
2018-Feb-11 10:31N 29°34' W 090°29'3 5.6
2018-Feb-11 10:00N 29°34' W 090°33'1 1.1
2018-Feb-11 09:30N 29°34' W 090°32'0 0.0
2018-Feb-11 09:00N 29°34' W 090°32'0 0.0
2018-Feb-11 08:31N 29°34' W 090°32'0 0.0
2018-Feb-11 08:00N 29°34' W 090°32'0 0.0
2018-Feb-11 07:30N 29°34' W 090°32'0 0.0
2018-Feb-11 07:00N 29°34' W 090°32'0 0.0
2018-Feb-11 06:30N 29°34' W 090°32'0 0.0
2018-Feb-11 06:00N 29°34' W 090°32'0 0.0
2018-Feb-11 05:30N 29°34' W 090°32'0 0.0
2018-Feb-11 05:00N 29°34' W 090°32'0 0.0
2018-Feb-11 04:31N 29°34' W 090°32'0 0.0
2018-Feb-11 04:00N 29°34' W 090°32'0 0.0
2018-Feb-11 03:30N 29°34' W 090°32'0 0.0
2018-Feb-11 03:00N 29°34' W 090°32'0 0.2
2018-Feb-11 02:31N 29°34' W 090°32'3 6.2
2018-Feb-11 02:00N 29°35' W 090°36'2 4.6
2018-Feb-11 01:30N 29°35' W 090°38'3 5.5
2018-Feb-11 01:01N 29°36' W 090°41'2 3.1
2018-Feb-11 00:31N 29°36' W 090°43'2 3.0
2018-Feb-11 00:01N 29°34' W 090°43'2 4.5
2018-Feb-10 23:31N 29°33' W 090°45'3 5.8
2018-Feb-10 23:00N 29°32' W 090°48'  

Dump ship's entire track history